Time;durP1;ratioP1;P1;durP2;ratioP2;P2;SDS_P1;SDS_P2;PMS_P1;PMS_P2;Temp;Humidity;BMP_temperature;BMP_pressure;BME280_temperature;BME280_humidity;BME280_pressure;Samples;Min_cycle;Max_cycle;Signal;HPM_P1;HPM_P2
2023/04/30 00:01:26;;;;;;;9.07;4.20;;;5.80;99.90;;;;;;5080149;28;20226;-78
2023/04/30 00:03:53;;;;;;;6.40;4.00;;;5.80;99.90;;;;;;5077019;28;20215;-78
2023/04/30 00:06:19;;;;;;;8.17;4.03;;;5.70;99.90;;;;;;5098963;28;20200;-78
2023/04/30 00:08:46;;;;;;;7.43;4.60;;;5.60;99.90;;;;;;5088236;28;20200;-77
2023/04/30 00:11:14;;;;;;;7.50;3.70;;;5.60;99.90;;;;;;5085279;28;20228;-77
2023/04/30 00:13:42;;;;;;;7.87;3.77;;;5.60;99.90;;;;;;5084655;28;20567;-78
2023/04/30 00:16:09;;;;;;;6.80;4.10;;;5.60;99.90;;;;;;5077212;28;20255;-77
2023/04/30 00:18:36;;;;;;;7.07;3.67;;;5.60;99.90;;;;;;5089850;28;20710;-77
2023/04/30 00:21:03;;;;;;;7.13;4.03;;;5.50;99.90;;;;;;5077496;28;20222;-78
2023/04/30 00:23:30;;;;;;;8.33;3.90;;;5.40;99.90;;;;;;5077182;28;20687;-78
2023/04/30 00:25:57;;;;;;;8.57;3.73;;;5.40;99.90;;;;;;5073024;28;20198;-78
2023/04/30 00:28:25;;;;;;;8.77;4.07;;;5.30;99.90;;;;;;5082136;28;20205;-78
2023/04/30 00:30:52;;;;;;;9.37;3.83;;;5.50;99.90;;;;;;5077961;28;20223;-78
2023/04/30 00:33:19;;;;;;;8.03;3.83;;;5.60;99.90;;;;;;5091536;28;20226;-78
2023/04/30 00:35:45;;;;;;;6.13;3.80;;;5.60;99.90;;;;;;5074507;28;20206;-78
2023/04/30 00:38:12;;;;;;;9.70;4.10;;;5.60;99.90;;;;;;5082647;28;20210;-77
2023/04/30 00:40:41;;;;;;;7.90;4.10;;;5.60;99.90;;;;;;5074487;28;20252;-76
2023/04/30 00:43:08;;;;;;;7.87;4.00;;;5.70;99.90;;;;;;5082306;28;20205;-78
2023/04/30 00:45:36;;;;;;;9.87;4.13;;;5.70;99.90;;;;;;5082577;28;20210;-78
2023/04/30 00:48:03;;;;;;;8.27;4.87;;;5.80;99.90;;;;;;5084765;28;20198;-77
2023/04/30 00:50:30;;;;;;;9.30;4.33;;;5.80;99.90;;;;;;5082538;28;20206;-77
2023/04/30 00:52:58;;;;;;;7.30;4.27;;;5.80;99.90;;;;;;5082270;28;20206;-79
2023/04/30 00:55:25;;;;;;;6.97;4.43;;;5.80;99.90;;;;;;5082121;28;20260;-78
2023/04/30 00:57:53;;;;;;;7.70;3.77;;;5.70;99.90;;;;;;5074834;28;20643;-78
2023/04/30 01:00:20;;;;;;;7.37;4.47;;;5.70;99.90;;;;;;5088554;28;20206;-78
2023/04/30 01:02:49;;;;;;;6.93;4.00;;;5.60;99.90;;;;;;5082443;28;20203;-78
2023/04/30 01:05:15;;;;;;;5.37;3.50;;;5.50;99.90;;;;;;5085677;28;20205;-77
2023/04/30 01:07:45;;;;;;;6.97;4.17;;;5.40;99.90;;;;;;5085631;28;20206;-78
2023/04/30 01:10:12;;;;;;;6.70;4.03;;;5.40;99.90;;;;;;5084199;28;20659;-78
2023/04/30 01:12:46;;;;;;;11.40;4.57;;;5.40;99.90;;;;;;5073025;28;20237;-78
2023/04/30 01:15:23;;;;;;;8.30;3.70;;;5.30;99.90;;;;;;5094269;28;20227;-78
2023/04/30 01:17:56;;;;;;;10.47;4.30;;;5.30;99.90;;;;;;5085328;28;20259;-78
2023/04/30 01:20:26;;;;;;;6.57;3.23;;;5.20;99.90;;;;;;5084315;28;20209;-79
2023/04/30 01:22:57;;;;;;;8.70;3.70;;;5.10;99.90;;;;;;5083518;28;20219;-78
2023/04/30 01:25:51;;;;;;;6.40;3.90;;;5.20;99.90;;;;;;5081513;28;20214;-78
2023/04/30 01:28:22;;;;;;;6.50;3.57;;;5.20;99.90;;;;;;5079974;28;20212;-77
2023/04/30 01:30:49;;;;;;;7.50;3.70;;;5.10;99.90;;;;;;5084356;28;20238;-78
2023/04/30 01:33:16;;;;;;;10.53;3.90;;;5.10;99.90;;;;;;5079817;28;20206;-78
2023/04/30 01:36:07;;;;;;;6.87;3.33;;;5.10;99.90;;;;;;5088998;28;20208;-78
2023/04/30 01:38:52;;;;;;;8.40;3.93;;;5.00;99.90;;;;;;5088179;28;20222;-78
2023/04/30 01:41:29;;;;;;;6.63;3.80;;;5.00;99.90;;;;;;5077069;28;20225;-77
2023/04/30 01:44:10;;;;;;;10.03;3.27;;;5.10;99.90;;;;;;5093788;28;20204;-78
2023/04/30 01:46:36;;;;;;;5.77;3.50;;;5.10;99.90;;;;;;5086589;28;20206;-78
2023/04/30 01:49:13;;;;;;;11.23;4.20;;;5.20;99.90;;;;;;5083008;28;20202;-78
2023/04/30 01:51:42;;;;;;;8.30;3.63;;;5.20;99.90;;;;;;5085590;28;20308;-78
2023/04/30 01:54:16;;;;;;;7.30;3.60;;;4.90;99.90;;;;;;5085485;28;20659;-78
2023/04/30 01:56:51;;;;;;;9.47;3.73;;;4.80;99.90;;;;;;5087231;28;20201;-77
2023/04/30 01:59:20;;;;;;;7.80;3.50;;;4.80;99.90;;;;;;5084302;28;20229;-78
2023/04/30 02:01:47;;;;;;;8.57;3.27;;;4.80;99.90;;;;;;5077249;28;20240;-78
2023/04/30 02:04:14;;;;;;;7.27;3.57;;;4.70;99.90;;;;;;5076970;28;20201;-79
2023/04/30 02:06:40;;;;;;;10.83;4.17;;;4.60;99.90;;;;;;5075987;28;20206;-76
2023/04/30 02:09:09;;;;;;;7.63;4.20;;;4.40;99.90;;;;;;5078999;28;20688;-78
2023/04/30 02:11:36;;;;;;;7.93;3.83;;;4.40;99.90;;;;;;5097783;28;20231;-77
2023/04/30 02:14:03;;;;;;;6.70;3.97;;;4.40;99.90;;;;;;5094567;28;20205;-78
2023/04/30 02:16:31;;;;;;;8.07;3.87;;;4.30;99.90;;;;;;5080007;28;20198;-78
2023/04/30 02:18:58;;;;;;;8.50;3.73;;;4.30;99.90;;;;;;5089037;28;20245;-78
2023/04/30 02:21:26;;;;;;;8.10;3.97;;;4.40;99.90;;;;;;5089021;28;20233;-77
2023/04/30 02:23:52;;;;;;;6.03;3.53;;;4.30;99.90;;;;;;5087523;28;20659;-77
2023/04/30 02:26:20;;;;;;;7.67;4.10;;;4.30;99.90;;;;;;5087171;28;20201;-77
2023/04/30 02:28:46;;;;;;;7.27;3.67;;;4.20;99.90;;;;;;5082887;28;20190;-79
2023/04/30 02:31:13;;;;;;;9.63;3.70;;;4.20;99.90;;;;;;5082363;28;20221;-77
2023/04/30 02:33:41;;;;;;;6.40;3.63;;;4.10;99.90;;;;;;5082246;28;20285;-78
2023/04/30 02:36:08;;;;;;;9.30;4.07;;;4.10;99.90;;;;;;5085964;28;20195;-78
2023/04/30 02:38:35;;;;;;;8.97;3.60;;;4.10;99.90;;;;;;5086502;28;20229;-78
2023/04/30 02:41:02;;;;;;;9.87;4.10;;;4.10;99.90;;;;;;5092635;28;20234;-77
2023/04/30 02:43:29;;;;;;;7.07;3.93;;;4.10;99.90;;;;;;5082832;28;20289;-78
2023/04/30 02:45:55;;;;;;;5.37;3.93;;;4.00;99.90;;;;;;5081013;28;20694;-78
2023/04/30 02:48:23;;;;;;;9.53;4.30;;;4.00;99.90;;;;;;5086803;28;20285;-77
2023/04/30 02:50:51;;;;;;;9.43;4.27;;;4.00;99.90;;;;;;5077449;28;20313;-77
2023/04/30 02:53:17;;;;;;;5.93;4.10;;;4.10;99.90;;;;;;5074848;28;20202;-78
2023/04/30 02:55:45;;;;;;;8.63;4.37;;;3.80;99.90;;;;;;5106068;28;20204;-78
2023/04/30 02:58:14;;;;;;;6.67;3.70;;;4.00;99.90;;;;;;5099902;28;20210;-78
2023/04/30 03:00:41;;;;;;;7.13;3.87;;;4.00;99.90;;;;;;5044789;28;1077943;-77
2023/04/30 03:03:08;;;;;;;8.80;4.80;;;3.90;99.90;;;;;;5085412;28;20578;-77
2023/04/30 03:05:34;;;;;;;7.93;3.90;;;3.70;99.90;;;;;;5090703;28;20214;-78
2023/04/30 03:08:03;;;;;;;5.93;4.13;;;3.80;99.90;;;;;;5085476;28;20198;-78
2023/04/30 03:10:29;;;;;;;26.37;16.13;;;3.80;99.90;;;;;;5084489;28;20199;-77
2023/04/30 03:12:56;;;;;;;7.33;4.70;;;3.80;99.90;;;;;;5083831;28;20210;-78
2023/04/30 03:15:23;;;;;;;15.23;8.43;;;3.70;99.90;;;;;;5083828;28;20602;-78
2023/04/30 03:17:50;;;;;;;11.00;5.90;;;3.60;99.90;;;;;;5083685;28;20319;-78
2023/04/30 03:20:17;;;;;;;8.90;4.30;;;3.60;99.90;;;;;;5083162;28;20244;-78
2023/04/30 03:22:44;;;;;;;9.23;4.73;;;3.50;99.90;;;;;;5086850;28;20221;-77
2023/04/30 03:25:12;;;;;;;9.77;4.33;;;3.60;99.90;;;;;;5078320;28;20252;-78
2023/04/30 03:27:41;;;;;;;7.27;4.23;;;3.60;99.90;;;;;;5086296;28;20221;-79
2023/04/30 03:30:09;;;;;;;7.33;4.03;;;3.50;99.90;;;;;;5083771;28;20198;-78
2023/04/30 03:32:35;;;;;;;7.57;4.10;;;3.50;99.90;;;;;;5091407;28;20226;-79
2023/04/30 03:35:03;;;;;;;5.73;3.70;;;3.60;99.90;;;;;;5094258;28;20205;-78
2023/04/30 03:37:29;;;;;;;7.00;4.17;;;3.60;99.90;;;;;;5111756;28;20265;-79
2023/04/30 03:39:56;;;;;;;7.10;4.30;;;3.60;99.90;;;;;;5086130;28;20227;-76
2023/04/30 03:42:24;;;;;;;8.77;4.13;;;3.60;99.90;;;;;;5083206;28;20222;-77
2023/04/30 03:44:51;;;;;;;9.43;4.30;;;3.60;99.90;;;;;;5074264;28;20684;-78
2023/04/30 03:47:18;;;;;;;8.53;4.63;;;3.50;99.90;;;;;;5090967;28;20198;-78
2023/04/30 03:49:45;;;;;;;9.27;4.20;;;3.40;99.90;;;;;;5079304;28;20202;-78
2023/04/30 03:52:12;;;;;;;6.33;4.00;;;3.70;99.90;;;;;;5079827;28;20222;-78
2023/04/30 03:54:38;;;;;;;8.07;4.67;;;3.80;99.90;;;;;;5085137;28;20206;-78
2023/04/30 03:57:06;;;;;;;7.27;5.07;;;3.80;99.90;;;;;;5080905;28;20573;-77
2023/04/30 03:59:34;;;;;;;8.20;4.73;;;3.80;99.90;;;;;;5082133;28;20225;-78
2023/04/30 04:02:01;;;;;;;11.73;6.17;;;3.80;99.90;;;;;;5090571;28;20227;-78
2023/04/30 04:04:29;;;;;;;9.77;4.90;;;3.90;99.90;;;;;;5075644;28;20301;-79
2023/04/30 04:06:55;;;;;;;8.90;4.33;;;4.00;99.90;;;;;;5083740;28;20211;-77
2023/04/30 04:09:22;;;;;;;12.27;7.40;;;4.30;99.90;;;;;;5077121;28;20198;-78
2023/04/30 04:11:49;;;;;;;10.00;5.80;;;4.30;99.90;;;;;;5087054;28;20227;-78
2023/04/30 04:14:16;;;;;;;6.90;4.90;;;4.60;99.90;;;;;;5083933;28;20731;-79
2023/04/30 04:16:44;;;;;;;7.70;3.90;;;4.90;99.90;;;;;;5083793;28;20210;-78
2023/04/30 04:19:13;;;;;;;6.47;3.87;;;5.00;99.90;;;;;;5084949;28;20323;-79
2023/04/30 04:21:40;;;;;;;6.83;3.90;;;5.30;99.90;;;;;;5085968;28;20238;-78
2023/04/30 04:24:07;;;;;;;7.20;3.80;;;5.00;99.90;;;;;;5080393;28;20198;-78
2023/04/30 04:26:35;;;;;;;8.27;3.90;;;5.10;99.90;;;;;;5087987;28;20193;-78
2023/04/30 04:29:02;;;;;;;6.37;3.97;;;5.20;99.90;;;;;;5094003;28;20621;-78
2023/04/30 04:31:30;;;;;;;11.23;4.37;;;5.50;99.90;;;;;;5088352;28;20214;-79
2023/04/30 04:34:00;;;;;;;9.73;3.77;;;5.70;99.90;;;;;;5081228;28;20206;-79
2023/04/30 04:36:29;;;;;;;6.67;3.70;;;5.80;99.90;;;;;;5087081;28;20310;-78
2023/04/30 04:38:56;;;;;;;5.57;3.10;;;5.80;99.90;;;;;;5076019;28;20244;-78
2023/04/30 04:41:24;;;;;;;6.20;3.43;;;5.90;99.90;;;;;;5076316;28;20307;-79
2023/04/30 04:43:51;;;;;;;9.60;3.33;;;6.60;99.90;;;;;;5085341;28;20251;-79
2023/04/30 04:46:19;;;;;;;5.47;3.40;;;6.70;99.90;;;;;;5090944;28;20206;-79
2023/04/30 04:48:46;;;;;;;6.47;3.53;;;7.30;99.90;;;;;;5080342;28;20207;-78
2023/04/30 04:51:14;;;;;;;7.43;3.30;;;7.80;99.90;;;;;;5083567;28;20249;-77
2023/04/30 04:53:41;;;;;;;7.30;3.37;;;7.90;99.90;;;;;;5082663;28;20217;-77
2023/04/30 04:56:08;;;;;;;5.50;3.33;;;8.00;99.90;;;;;;5092350;28;20227;-78
2023/04/30 04:58:36;;;;;;;8.13;3.37;;;8.70;99.90;;;;;;5080538;28;20663;-77
2023/04/30 05:01:04;;;;;;;24.57;11.10;;;8.30;99.90;;;;;;5094321;28;20226;-78
2023/04/30 05:03:35;;;;;;;18.80;10.30;;;7.70;99.90;;;;;;5090406;28;20209;-78
2023/04/30 05:06:02;;;;;;;7.83;4.47;;;7.10;99.90;;;;;;5087652;28;20284;-78
2023/04/30 05:08:31;;;;;;;6.37;3.53;;;7.50;99.90;;;;;;5085936;28;20225;-78
2023/04/30 05:10:58;;;;;;;6.13;3.83;;;7.90;99.90;;;;;;5073632;28;20403;-78
2023/04/30 05:13:25;;;;;;;7.73;3.30;;;8.00;99.90;;;;;;5082245;28;20210;-78
2023/04/30 05:15:53;;;;;;;5.83;3.70;;;8.10;99.90;;;;;;5079141;28;20202;-77
2023/04/30 05:18:20;;;;;;;6.13;3.57;;;8.20;99.90;;;;;;5075065;28;20202;-78
2023/04/30 05:20:46;;;;;;;4.53;3.17;;;8.20;99.90;;;;;;5084386;28;20221;-78
2023/04/30 05:23:13;;;;;;;8.17;2.93;;;8.30;99.90;;;;;;5082508;28;20686;-77
2023/04/30 05:25:41;;;;;;;5.30;3.10;;;8.20;99.90;;;;;;5078669;28;20662;-78
2023/04/30 05:28:08;;;;;;;4.77;2.97;;;9.20;99.90;;;;;;5084201;28;20663;-78
2023/04/30 05:30:35;;;;;;;6.27;3.63;;;9.70;99.90;;;;;;5087039;28;20212;-79
2023/04/30 05:33:02;;;;;;;9.90;3.40;;;11.00;99.90;;;;;;5084673;28;20302;-80
2023/04/30 05:35:29;;;;;;;6.90;3.00;;;11.10;99.90;;;;;;5087434;28;20202;-79
2023/04/30 05:37:56;;;;;;;6.37;3.03;;;10.70;99.90;;;;;;5077949;28;20198;-78
2023/04/30 05:40:23;;;;;;;7.57;3.00;;;9.70;99.90;;;;;;5081277;28;20229;-78
2023/04/30 05:42:51;;;;;;;8.77;3.20;;;9.50;99.90;;;;;;5080097;28;20197;-78
2023/04/30 05:45:17;;;;;;;7.77;4.00;;;9.50;99.90;;;;;;5084168;28;20202;-78
2023/04/30 05:47:44;;;;;;;8.68;3.30;;;9.40;99.90;;;;;;5078013;28;20197;-78
2023/04/30 05:50:11;;;;;;;4.20;3.20;;;9.60;99.90;;;;;;5082692;28;20289;-79
2023/04/30 05:52:38;;;;;;;7.57;3.35;;;9.60;99.90;;;;;;5080686;28;20221;-77
2023/04/30 05:55:06;;;;;;;11.60;3.87;;;8.90;99.90;;;;;;5079456;28;20579;-77
2023/04/30 05:57:34;;;;;;;9.30;3.60;;;9.30;99.90;;;;;;5087501;28;20209;-78
2023/04/30 06:00:05;;;;;;;7.73;3.27;;;9.80;99.90;;;;;;5085420;28;20221;-78
2023/04/30 06:02:32;;;;;;;9.90;3.53;;;8.90;99.90;;;;;;5073493;28;20229;-79
2023/04/30 06:05:00;;;;;;;10.37;4.00;;;8.30;99.90;;;;;;5089884;28;20206;-78
2023/04/30 06:07:27;;;;;;;6.53;3.80;;;8.20;99.90;;;;;;5074983;28;20198;-79
2023/04/30 06:09:54;;;;;;;5.07;3.60;;;8.40;99.90;;;;;;5081853;28;20277;-78
2023/04/30 06:12:21;;;;;;;9.93;3.87;;;8.30;99.90;;;;;;5084139;28;20217;-78
2023/04/30 06:14:47;;;;;;;10.43;4.00;;;8.30;99.90;;;;;;5084831;28;20582;-78
2023/04/30 06:17:16;;;;;;;7.43;3.60;;;8.60;99.90;;;;;;5112627;28;20204;-78
2023/04/30 06:19:42;;;;;;;10.43;3.90;;;8.60;99.90;;;;;;5087881;28;20756;-79
2023/04/30 06:22:09;;;;;;;6.70;3.30;;;8.50;99.90;;;;;;5078045;28;20218;-78
2023/04/30 06:24:36;;;;;;;10.07;3.90;;;8.20;99.90;;;;;;5077757;28;20213;-78
2023/04/30 06:27:03;;;;;;;9.27;3.43;;;8.40;99.90;;;;;;5092431;28;20558;-78
2023/04/30 06:29:30;;;;;;;10.83;3.90;;;8.30;99.90;;;;;;5075972;28;20195;-79
2023/04/30 06:31:57;;;;;;;9.83;3.37;;;8.40;99.90;;;;;;5082682;28;20259;-79
2023/04/30 06:34:25;;;;;;;7.33;3.10;;;8.40;99.90;;;;;;5083125;28;20202;-79
2023/04/30 06:36:52;;;;;;;5.67;2.87;;;8.80;99.90;;;;;;5083684;28;20482;-78
2023/04/30 06:39:19;;;;;;;8.43;3.20;;;8.80;99.90;;;;;;5090039;28;20226;-77
2023/04/30 06:41:46;;;;;;;7.83;2.83;;;9.00;99.90;;;;;;5082570;28;20224;-77
2023/04/30 06:44:13;;;;;;;10.47;3.23;;;9.30;99.90;;;;;;5085850;28;20255;-78
2023/04/30 06:46:40;;;;;;;8.43;3.20;;;9.70;99.90;;;;;;5088627;28;20228;-79
2023/04/30 06:49:07;;;;;;;5.27;2.60;;;9.40;99.90;;;;;;5104472;28;20210;-79
2023/04/30 06:51:35;;;;;;;8.27;2.90;;;9.40;99.90;;;;;;5085080;28;20222;-78
2023/04/30 06:54:02;;;;;;;7.17;3.27;;;9.50;99.90;;;;;;5086272;28;20222;-78
2023/04/30 06:56:29;;;;;;;8.87;3.23;;;9.10;99.90;;;;;;5097970;28;20244;-78
2023/04/30 06:58:56;;;;;;;7.00;2.90;;;8.70;99.90;;;;;;5083717;28;20308;-78
2023/04/30 07:01:23;;;;;;;9.73;3.37;;;9.20;99.90;;;;;;5096174;28;20221;-78
2023/04/30 07:03:51;;;;;;;8.03;2.97;;;8.30;99.90;;;;;;5097841;28;20281;-77
2023/04/30 07:06:18;;;;;;;6.67;2.47;;;9.00;99.90;;;;;;5094988;28;20201;-78
2023/04/30 07:08:47;;;;;;;9.40;2.83;;;9.10;99.90;;;;;;5101312;28;20201;-79
2023/04/30 07:11:14;;;;;;;10.53;3.00;;;9.50;99.90;;;;;;5094870;28;20289;-78
2023/04/30 07:13:41;;;;;;;6.03;2.93;;;9.30;99.90;;;;;;5098068;28;20217;-78
2023/04/30 07:16:09;;;;;;;8.40;3.40;;;8.90;99.90;;;;;;5082602;28;20202;-78
2023/04/30 07:18:36;;;;;;;7.90;2.87;;;8.70;99.90;;;;;;5099285;28;20205;-77
2023/04/30 07:21:03;;;;;;;7.67;3.53;;;8.40;99.90;;;;;;5089831;28;20244;-79
2023/04/30 07:23:30;;;;;;;10.90;3.50;;;8.70;99.90;;;;;;5086827;28;20206;-78
2023/04/30 07:25:58;;;;;;;11.37;4.30;;;9.20;99.90;;;;;;5079736;28;20213;-78
2023/04/30 07:28:26;;;;;;;6.80;3.20;;;9.70;99.90;;;;;;5098426;28;20206;-78
2023/04/30 07:30:53;;;;;;;7.00;2.77;;;9.50;99.90;;;;;;5083496;28;20238;-77
2023/04/30 07:33:21;;;;;;;9.13;3.83;;;9.00;99.90;;;;;;5088516;28;20582;-78
2023/04/30 07:35:47;;;;;;;9.90;3.13;;;9.10;99.90;;;;;;5099406;28;20555;-78
2023/04/30 07:38:16;;;;;;;9.27;3.30;;;9.40;99.90;;;;;;5092696;28;20585;-78
2023/04/30 07:40:43;;;;;;;7.90;3.20;;;9.60;99.90;;;;;;5090796;28;20226;-77
2023/04/30 07:43:11;;;;;;;5.87;2.80;;;9.50;99.90;;;;;;5100680;28;20210;-78
2023/04/30 07:45:38;;;;;;;9.40;3.30;;;9.20;99.90;;;;;;5092635;28;20224;-77
2023/04/30 07:48:05;;;;;;;6.10;2.73;;;9.40;99.90;;;;;;5096389;28;20201;-78
2023/04/30 07:50:33;;;;;;;7.57;3.13;;;9.30;99.90;;;;;;5095452;28;20194;-79
2023/04/30 07:53:00;;;;;;;10.77;3.23;;;9.30;99.90;;;;;;5089766;28;20217;-79
2023/04/30 07:55:27;;;;;;;7.30;3.20;;;9.00;99.90;;;;;;5092562;28;20213;-78
2023/04/30 07:57:54;;;;;;;10.20;3.70;;;8.90;99.90;;;;;;5090531;28;20233;-78
2023/04/30 08:00:25;;;;;;;7.00;3.53;;;9.30;99.90;;;;;;5091708;28;20291;-78
2023/04/30 08:02:52;;;;;;;6.53;3.40;;;9.50;99.90;;;;;;5089801;28;20210;-77
2023/04/30 08:05:18;;;;;;;7.80;3.50;;;9.70;99.90;;;;;;5091427;28;20211;-79
2023/04/30 08:07:45;;;;;;;9.47;3.60;;;9.30;99.90;;;;;;5099090;28;20293;-78
2023/04/30 08:10:12;;;;;;;10.57;3.10;;;9.30;99.90;;;;;;5090266;28;20233;-78
2023/04/30 08:12:39;;;;;;;7.70;3.20;;;9.70;99.90;;;;;;5090638;28;20324;-78
2023/04/30 08:15:07;;;;;;;9.30;2.90;;;9.80;99.90;;;;;;5101342;28;20293;-78
2023/04/30 08:17:36;;;;;;;6.87;3.00;;;9.70;99.90;;;;;;5086515;28;20288;-78
2023/04/30 08:20:05;;;;;;;8.57;2.90;;;9.80;99.90;;;;;;5089446;28;20228;-78
2023/04/30 08:22:32;;;;;;;10.53;3.57;;;9.80;99.90;;;;;;5099249;28;20229;-77
2023/04/30 08:25:00;;;;;;;4.97;2.60;;;9.50;99.90;;;;;;5082365;28;20199;-76
2023/04/30 08:27:27;;;;;;;5.40;2.80;;;9.50;99.90;;;;;;5080172;28;20652;-78
2023/04/30 08:29:54;;;;;;;8.27;2.90;;;9.80;99.90;;;;;;5090503;28;20663;-79
2023/04/30 08:32:21;;;;;;;8.67;3.03;;;9.90;99.90;;;;;;5091319;28;20299;-77
2023/04/30 08:34:49;;;;;;;5.50;2.93;;;10.00;99.90;;;;;;5080735;28;20198;-78
2023/04/30 08:37:16;;;;;;;8.50;3.30;;;9.70;99.90;;;;;;5087681;28;20205;-78
2023/04/30 08:39:42;;;;;;;4.90;3.03;;;9.90;99.90;;;;;;5088221;28;20288;-79
2023/04/30 08:42:13;;;;;;;7.13;2.80;;;10.20;99.90;;;;;;5093573;28;20316;-79
2023/04/30 08:44:42;;;;;;;8.30;2.83;;;10.10;99.90;;;;;;5078272;28;20202;-79
2023/04/30 08:47:13;;;;;;;9.63;3.13;;;9.70;99.90;;;;;;5086162;28;20635;-80
2023/04/30 08:49:40;;;;;;;7.17;3.07;;;10.10;99.90;;;;;;5090443;28;20203;-80
2023/04/30 08:52:08;;;;;;;7.63;3.30;;;10.30;99.90;;;;;;5091769;28;20305;-79
2023/04/30 08:54:36;;;;;;;7.27;2.97;;;10.50;99.90;;;;;;5088052;28;20221;-79
2023/04/30 08:57:03;;;;;;;9.97;3.43;;;10.80;99.90;;;;;;5080558;28;20194;-79
2023/04/30 08:59:30;;;;;;;8.80;3.20;;;11.00;99.90;;;;;;5089502;28;20210;-79
2023/04/30 09:01:57;;;;;;;8.27;3.10;;;11.40;99.90;;;;;;5081932;28;20224;-79
2023/04/30 09:04:24;;;;;;;12.13;3.27;;;11.40;99.90;;;;;;5089369;28;20236;-78
2023/04/30 09:06:57;;;;;;;8.10;3.13;;;11.50;99.90;;;;;;5091930;28;20224;-78
2023/04/30 09:09:28;;;;;;;6.87;2.90;;;12.00;99.90;;;;;;5087177;28;20206;-78
2023/04/30 09:12:12;;;;;;;7.73;2.90;;;11.90;99.90;;;;;;5093896;28;20224;-78
2023/04/30 09:14:39;;;;;;;8.03;3.20;;;12.20;99.90;;;;;;5086083;28;20619;-78
2023/04/30 09:17:07;;;;;;;9.77;3.10;;;12.10;12.10;;;;;;5079105;28;20202;-77
2023/04/30 09:19:34;;;;;;;7.77;3.20;;;12.40;99.90;;;;;;5096438;28;20214;-77
2023/04/30 09:22:19;;;;;;;8.60;3.00;;;11.90;1.00;;;;;;5094533;28;20310;-78
2023/04/30 09:24:49;;;;;;;9.27;3.17;;;12.30;1.00;;;;;;5079090;28;20216;-78
2023/04/30 09:27:17;;;;;;;6.03;2.63;;;12.10;1.00;;;;;;5079531;28;20575;-78
2023/04/30 09:29:45;;;;;;;9.80;3.17;;;12.30;1.00;;;;;;5078596;28;20639;-77
2023/04/30 09:32:12;;;;;;;5.60;2.87;;;12.50;99.90;;;;;;5081744;28;20715;-78
2023/04/30 09:34:39;;;;;;;10.00;3.47;;;12.40;1.00;;;;;;5081852;28;20201;-77
2023/04/30 09:37:06;;;;;;;6.83;3.10;;;12.40;1.00;;;;;;5083225;28;20202;-77
2023/04/30 09:39:33;;;;;;;7.87;3.07;;;12.60;1.00;;;;;;5078706;28;20210;-77
2023/04/30 09:42:11;;;;;;;7.87;2.80;;;13.00;63.50;;;;;;5081102;28;20280;-78
2023/04/30 09:44:39;;;;;;;7.43;2.83;;;12.30;1.00;;;;;;5083668;28;20202;-78
2023/04/30 09:47:11;;;;;;;7.70;3.10;;;13.20;1.00;;;;;;5082401;28;20640;-78
2023/04/30 09:49:38;;;;;;;6.13;2.83;;;13.40;1.00;;;;;;5092372;28;20198;-79
2023/04/30 09:52:06;;;;;;;5.60;2.80;;;13.20;1.00;;;;;;5085405;28;20224;-78
2023/04/30 09:54:33;;;;;;;5.27;2.60;;;12.90;99.50;;;;;;5082193;28;20228;-79
2023/04/30 09:57:02;;;;;;;5.63;3.50;;;12.90;14.00;;;;;;5093490;28;20209;-78
2023/04/30 09:59:32;;;;;;;4.87;2.70;;;13.10;99.90;;;;;;5080139;28;20221;-78
2023/04/30 10:02:00;;;;;;;6.55;2.70;;;13.10;1.00;;;;;;5076333;28;20244;-78
2023/04/30 10:04:30;;;;;;;5.17;2.63;;;12.80;1.00;;;;;;5085226;28;20623;-76
2023/04/30 10:07:01;;;;;;;4.67;3.00;;;12.90;1.00;;;;;;5084062;28;20285;-78
2023/04/30 10:09:36;;;;;;;8.40;3.10;;;13.10;1.00;;;;;;5087049;28;20284;-78
2023/04/30 10:12:04;;;;;;;5.43;2.80;;;13.80;1.00;;;;;;5081994;28;20686;-78
2023/04/30 10:14:35;;;;;;;6.03;2.70;;;13.00;1.00;;;;;;5093661;28;20206;-78
2023/04/30 10:17:07;;;;;;;8.27;3.63;;;12.90;99.90;;;;;;5074996;28;20202;-77
2023/04/30 10:19:38;;;;;;;8.80;3.25;;;13.70;99.90;;;;;;5090066;28;20218;-78
2023/04/30 10:22:05;;;;;;;8.13;3.30;;;14.40;99.90;;;;;;5093266;28;20307;-78
2023/04/30 10:24:32;;;;;;;8.27;3.00;;;13.50;1.00;;;;;;5080051;28;20293;-78
2023/04/30 10:26:59;;;;;;;7.20;3.00;;;13.20;1.00;;;;;;5083068;28;20244;-77
2023/04/30 10:29:26;;;;;;;10.63;3.10;;;13.20;1.00;;;;;;5083051;28;20650;-77
2023/04/30 10:31:55;;;;;;;7.18;2.88;;;13.20;1.00;;;;;;5091037;28;20218;-77
2023/04/30 10:34:31;;;;;;;7.10;3.20;;;13.50;1.00;;;;;;5087685;28;20281;-78
2023/04/30 10:37:02;;;;;;;8.63;2.80;;;13.20;1.00;;;;;;5094589;28;20581;-77
2023/04/30 10:39:30;;;;;;;11.27;3.47;;;13.40;1.00;;;;;;5087005;28;20202;-77
2023/04/30 10:42:04;;;;;;;7.40;3.35;;;13.70;1.00;;;;;;5083045;28;20228;-77
2023/04/30 10:44:33;;;;;;;7.88;3.10;;;13.50;1.00;;;;;;5082282;28;20654;-76
2023/04/30 10:47:03;;;;;;;8.60;2.90;;;13.90;1.00;;;;;;5075776;28;20198;-78
2023/04/30 10:49:30;;;;;;;7.10;2.70;;;13.80;99.90;;;;;;5078924;28;20198;-77
2023/04/30 10:52:00;;;;;;;6.65;3.00;;;13.70;99.90;;;;;;5077093;28;20240;-78
2023/04/30 10:54:28;;;;;;;6.05;2.60;;;14.10;1.00;;;;;;5078779;28;20211;-77
2023/04/30 10:57:12;;;;;;;7.43;3.22;;;13.80;99.90;;;;;;5080136;28;20289;-78
2023/04/30 10:59:45;;;;;;;7.05;2.88;;;13.80;66.80;;;;;;5075712;28;20237;-77
2023/04/30 11:02:15;;;;;;;7.93;3.10;;;13.70;1.00;;;;;;5077887;28;20222;-78
2023/04/30 11:05:12;;;;;;;5.82;2.90;;;14.10;69.90;;;;;;5079019;28;20225;-78
2023/04/30 11:07:48;;;;;;;5.38;3.05;;;14.10;99.90;;;;;;5081149;28;20205;-78
2023/04/30 11:10:15;;;;;;;7.15;3.13;;;13.40;4.50;;;;;;5091404;28;20205;-78
2023/04/30 11:12:48;;;;;;;9.10;3.67;;;13.70;1.00;;;;;;5077942;28;20233;-79
2023/04/30 11:15:17;;;;;;;6.25;2.92;;;13.60;1.00;;;;;;5080520;28;20202;-79
2023/04/30 11:17:46;;;;;;;5.30;3.13;;;13.80;1.00;;;;;;5086923;28;20247;-80
2023/04/30 11:20:14;;;;;;;5.38;3.00;;;14.00;1.00;;;;;;5079680;28;20247;-79
2023/04/30 11:22:41;;;;;;;5.72;2.80;;;14.30;1.00;;;;;;5088789;28;20218;-79
2023/04/30 11:25:10;;;;;;;8.07;3.05;;;13.80;1.00;;;;;;5084123;28;20195;-78
2023/04/30 11:27:38;;;;;;;4.53;2.58;;;14.80;1.00;;;;;;5075344;28;20575;-77
2023/04/30 11:30:12;;;;;;;9.03;2.83;;;15.30;1.00;;;;;;5076205;28;20579;-79
2023/04/30 11:32:39;;;;;;;7.75;3.45;;;14.20;1.00;;;;;;5075381;28;20576;-77
2023/04/30 11:35:08;;;;;;;6.90;2.80;;;14.10;1.00;;;;;;5083133;28;20205;-78
2023/04/30 11:37:36;;;;;;;6.93;3.22;;;14.40;99.90;;;;;;5095092;28;20201;-78
2023/04/30 11:40:05;;;;;;;7.03;2.97;;;14.80;1.00;;;;;;5091447;28;20656;-78
2023/04/30 11:42:34;;;;;;;4.65;2.83;;;14.40;99.90;;;;;;5075261;28;20719;-78
2023/04/30 11:45:06;;;;;;;7.57;3.53;;;14.70;99.90;;;;;;5075248;28;20580;-77
2023/04/30 11:47:42;;;;;;;8.00;3.38;;;14.20;99.90;;;;;;5074983;28;20209;-79
2023/04/30 11:50:12;;;;;;;8.80;3.45;;;13.90;99.90;;;;;;5074662;28;20664;-77
2023/04/30 11:52:39;;;;;;;5.85;2.90;;;13.90;99.90;;;;;;5075073;28;20219;-78
2023/04/30 11:55:08;;;;;;;7.50;3.20;;;14.10;99.90;;;;;;5075146;28;20226;-79
2023/04/30 11:57:40;;;;;;;4.82;2.90;;;14.50;82.90;;;;;;5074547;28;20202;-79
2023/04/30 12:00:15;;;;;;;5.65;2.88;;;15.00;99.90;;;;;;5080711;28;20217;-79
2023/04/30 12:02:43;;;;;;;5.85;3.08;;;15.10;47.40;;;;;;5075902;28;20321;-80
2023/04/30 12:05:15;;;;;;;8.23;3.47;;;15.40;76.80;;;;;;5083247;28;20209;-79
2023/04/30 12:07:50;;;;;;;5.93;2.85;;;15.80;4.50;;;;;;5096243;28;20201;-79
2023/04/30 12:10:19;;;;;;;9.35;3.20;;;15.60;1.00;;;;;;5095151;28;20203;-80
2023/04/30 12:12:48;;;;;;;7.63;2.80;;;15.00;1.00;;;;;;5095606;28;20208;-80
2023/04/30 12:15:16;;;;;;;7.20;2.97;;;15.50;1.00;;;;;;5087141;28;20205;-78
2023/04/30 12:17:44;;;;;;;3.90;2.90;;;14.90;1.00;;;;;;5087712;28;20213;-80
2023/04/30 12:20:15;;;;;;;6.80;2.97;;;14.50;1.00;;;;;;5091040;28;20221;-80
2023/04/30 12:22:42;;;;;;;7.18;3.10;;;14.90;1.00;;;;;;5080451;28;20275;-79
2023/04/30 12:25:12;;;;;;;6.97;3.15;;;14.50;1.00;;;;;;5076155;28;20243;-81
2023/04/30 12:27:40;;;;;;;6.07;2.97;;;15.00;1.00;;;;;;5094578;28;20914;-79
2023/04/30 12:30:08;;;;;;;10.45;2.80;;;15.30;1.00;;;;;;5095583;28;20237;-79
2023/04/30 12:32:39;;;;;;;5.78;2.92;;;15.10;1.00;;;;;;5095509;28;20253;-79
2023/04/30 12:35:07;;;;;;;6.53;2.70;;;14.60;1.00;;;;;;5095155;28;20244;-79
2023/04/30 12:37:35;;;;;;;5.93;3.00;;;14.90;1.00;;;;;;5095804;28;20197;-80
2023/04/30 12:40:03;;;;;;;6.32;2.90;;;15.30;1.00;;;;;;5094364;28;20292;-80
2023/04/30 12:42:33;;;;;;;6.78;3.20;;;15.70;1.00;;;;;;5085487;28;20621;-79
2023/04/30 12:45:01;;;;;;;5.43;2.85;;;16.10;1.00;;;;;;5074908;28;20223;-79
2023/04/30 12:47:28;;;;;;;7.18;3.03;;;16.70;1.00;;;;;;5087718;28;20289;-79
2023/04/30 12:49:55;;;;;;;6.03;2.60;;;15.80;99.90;;;;;;5075635;28;20243;-79
2023/04/30 12:52:25;;;;;;;6.50;3.30;;;15.00;99.90;;;;;;5087879;28;20221;-78
2023/04/30 12:54:54;;;;;;;5.30;3.00;;;14.50;99.90;;;;;;5095369;28;20202;-78
2023/04/30 12:57:21;;;;;;;6.93;3.05;;;14.50;99.90;;;;;;5095954;28;20294;-78
2023/04/30 12:59:59;;;;;;;7.10;3.42;;;14.90;99.90;;;;;;5088159;28;20232;-78
2023/04/30 13:02:28;;;;;;;4.63;2.83;;;14.80;99.90;;;;;;5090192;28;20597;-79